sensor_id;sensor_type;location;lat;lon;timestamp;temperature;humidity
39401;SHT31;75540;50.000;7.360;2024-01-25T00:01:10;6.05;86.36
39401;SHT31;75540;50.000;7.360;2024-01-25T00:03:38;6.02;86.36
39401;SHT31;75540;50.000;7.360;2024-01-25T00:06:07;6.02;86.55
39401;SHT31;75540;50.000;7.360;2024-01-25T00:08:35;5.99;86.52
39401;SHT31;75540;50.000;7.360;2024-01-25T00:11:04;5.97;86.55
39401;SHT31;75540;50.000;7.360;2024-01-25T00:13:33;5.99;86.52
39401;SHT31;75540;50.000;7.360;2024-01-25T00:16:03;5.98;86.64
39401;SHT31;75540;50.000;7.360;2024-01-25T00:18:33;5.95;86.72
39401;SHT31;75540;50.000;7.360;2024-01-25T00:21:01;5.95;86.68
39401;SHT31;75540;50.000;7.360;2024-01-25T00:23:29;5.98;86.54
39401;SHT31;75540;50.000;7.360;2024-01-25T00:25:58;6.05;86.48
39401;SHT31;75540;50.000;7.360;2024-01-25T00:28:27;6.01;86.56
39401;SHT31;75540;50.000;7.360;2024-01-25T00:30:56;6.06;86.62
39401;SHT31;75540;50.000;7.360;2024-01-25T00:33:24;6.06;86.57
39401;SHT31;75540;50.000;7.360;2024-01-25T00:35:55;6.05;86.42
39401;SHT31;75540;50.000;7.360;2024-01-25T00:38:23;6.02;86.60
39401;SHT31;75540;50.000;7.360;2024-01-25T00:40:54;6.02;86.46
39401;SHT31;75540;50.000;7.360;2024-01-25T00:43:23;5.99;86.51
39401;SHT31;75540;50.000;7.360;2024-01-25T00:45:52;5.92;86.63
39401;SHT31;75540;50.000;7.360;2024-01-25T00:48:21;5.95;86.62
39401;SHT31;75540;50.000;7.360;2024-01-25T00:50:50;5.88;86.78
39401;SHT31;75540;50.000;7.360;2024-01-25T00:53:21;5.87;86.78
39401;SHT31;75540;50.000;7.360;2024-01-25T00:55:50;5.87;86.79
39401;SHT31;75540;50.000;7.360;2024-01-25T00:58:19;5.87;86.68
39401;SHT31;75540;50.000;7.360;2024-01-25T01:00:48;5.85;86.62
39401;SHT31;75540;50.000;7.360;2024-01-25T01:03:18;5.78;86.67
39401;SHT31;75540;50.000;7.360;2024-01-25T01:05:47;5.77;86.37
39401;SHT31;75540;50.000;7.360;2024-01-25T01:08:17;5.75;86.30
39401;SHT31;75540;50.000;7.360;2024-01-25T01:10:47;5.75;85.97
39401;SHT31;75540;50.000;7.360;2024-01-25T01:13:15;5.72;85.77
39401;SHT31;75540;50.000;7.360;2024-01-25T01:15:43;5.72;85.69
39401;SHT31;75540;50.000;7.360;2024-01-25T01:18:12;5.68;85.69
39401;SHT31;75540;50.000;7.360;2024-01-25T01:20:41;5.65;85.67
39401;SHT31;75540;50.000;7.360;2024-01-25T01:23:09;5.64;85.66
39401;SHT31;75540;50.000;7.360;2024-01-25T01:25:37;5.61;85.76
39401;SHT31;75540;50.000;7.360;2024-01-25T01:28:07;5.57;85.70
39401;SHT31;75540;50.000;7.360;2024-01-25T01:30:35;5.54;85.88
39401;SHT31;75540;50.000;7.360;2024-01-25T01:33:04;5.52;85.92
39401;SHT31;75540;50.000;7.360;2024-01-25T01:35:33;5.54;85.95
39401;SHT31;75540;50.000;7.360;2024-01-25T01:38:01;5.58;86.01
39401;SHT31;75540;50.000;7.360;2024-01-25T01:40:30;5.57;85.88
39401;SHT31;75540;50.000;7.360;2024-01-25T01:42:59;5.55;85.97
39401;SHT31;75540;50.000;7.360;2024-01-25T01:45:31;5.58;86.10
39401;SHT31;75540;50.000;7.360;2024-01-25T01:47:59;5.51;86.08
39401;SHT31;75540;50.000;7.360;2024-01-25T01:50:28;5.50;86.10
39401;SHT31;75540;50.000;7.360;2024-01-25T01:52:56;5.47;86.29
39401;SHT31;75540;50.000;7.360;2024-01-25T01:55:25;5.44;86.34
39401;SHT31;75540;50.000;7.360;2024-01-25T01:57:54;5.41;86.48
39401;SHT31;75540;50.000;7.360;2024-01-25T02:00:24;5.36;86.64
39401;SHT31;75540;50.000;7.360;2024-01-25T02:02:54;5.36;86.81
39401;SHT31;75540;50.000;7.360;2024-01-25T02:05:24;5.36;86.83
39401;SHT31;75540;50.000;7.360;2024-01-25T02:07:52;5.34;86.97
39401;SHT31;75540;50.000;7.360;2024-01-25T02:10:21;5.34;87.06
39401;SHT31;75540;50.000;7.360;2024-01-25T02:12:49;5.31;87.19
39401;SHT31;75540;50.000;7.360;2024-01-25T02:15:18;5.29;87.20
39401;SHT31;75540;50.000;7.360;2024-01-25T02:17:46;5.26;87.30
39401;SHT31;75540;50.000;7.360;2024-01-25T02:20:19;5.27;87.43
39401;SHT31;75540;50.000;7.360;2024-01-25T02:22:49;5.26;87.56
39401;SHT31;75540;50.000;7.360;2024-01-25T02:25:17;5.22;87.60
39401;SHT31;75540;50.000;7.360;2024-01-25T02:27:46;5.22;87.68
39401;SHT31;75540;50.000;7.360;2024-01-25T02:30:14;5.22;87.69
39401;SHT31;75540;50.000;7.360;2024-01-25T02:32:43;5.17;87.83
39401;SHT31;75540;50.000;7.360;2024-01-25T02:35:12;5.16;87.98
39401;SHT31;75540;50.000;7.360;2024-01-25T02:37:40;5.20;88.01
39401;SHT31;75540;50.000;7.360;2024-01-25T02:40:11;5.12;88.20
39401;SHT31;75540;50.000;7.360;2024-01-25T02:42:40;5.13;88.41
39401;SHT31;75540;50.000;7.360;2024-01-25T02:45:09;5.16;88.41
39401;SHT31;75540;50.000;7.360;2024-01-25T02:47:37;5.12;88.55
39401;SHT31;75540;50.000;7.360;2024-01-25T02:50:06;5.12;88.67
39401;SHT31;75540;50.000;7.360;2024-01-25T02:52:35;5.09;88.73
39401;SHT31;75540;50.000;7.360;2024-01-25T02:55:04;5.06;88.84
39401;SHT31;75540;50.000;7.360;2024-01-25T02:57:33;5.01;89.03
39401;SHT31;75540;50.000;7.360;2024-01-25T03:00:02;4.96;89.11
39401;SHT31;75540;50.000;7.360;2024-01-25T03:02:31;4.95;89.23
39401;SHT31;75540;50.000;7.360;2024-01-25T03:04:59;4.92;89.43
39401;SHT31;75540;50.000;7.360;2024-01-25T03:07:28;4.96;89.38
39401;SHT31;75540;50.000;7.360;2024-01-25T03:09:56;4.96;89.37
39401;SHT31;75540;50.000;7.360;2024-01-25T03:12:25;4.95;89.42
39401;SHT31;75540;50.000;7.360;2024-01-25T03:14:54;4.87;89.47
39401;SHT31;75540;50.000;7.360;2024-01-25T03:17:23;4.89;89.60
39401;SHT31;75540;50.000;7.360;2024-01-25T03:19:51;4.90;89.62
39401;SHT31;75540;50.000;7.360;2024-01-25T03:22:20;4.87;89.77
39401;SHT31;75540;50.000;7.360;2024-01-25T03:24:49;4.87;89.77
39401;SHT31;75540;50.000;7.360;2024-01-25T03:27:17;4.86;89.82
39401;SHT31;75540;50.000;7.360;2024-01-25T03:29:46;4.85;89.91
39401;SHT31;75540;50.000;7.360;2024-01-25T03:32:16;4.77;90.04
39401;SHT31;75540;50.000;7.360;2024-01-25T03:34:44;4.82;90.10
39401;SHT31;75540;50.000;7.360;2024-01-25T03:37:12;4.76;90.12
39401;SHT31;75540;50.000;7.360;2024-01-25T03:39:41;4.75;90.16
39401;SHT31;75540;50.000;7.360;2024-01-25T03:42:10;4.75;90.40
39401;SHT31;75540;50.000;7.360;2024-01-25T03:44:38;4.75;90.44
39401;SHT31;75540;50.000;7.360;2024-01-25T03:47:09;4.72;90.48
39401;SHT31;75540;50.000;7.360;2024-01-25T03:49:38;4.69;90.57
39401;SHT31;75540;50.000;7.360;2024-01-25T03:52:07;4.65;90.66
39401;SHT31;75540;50.000;7.360;2024-01-25T03:54:35;4.61;90.81
39401;SHT31;75540;50.000;7.360;2024-01-25T03:57:04;4.65;90.85
39401;SHT31;75540;50.000;7.360;2024-01-25T03:59:32;4.62;90.97
39401;SHT31;75540;50.000;7.360;2024-01-25T04:02:01;4.65;91.03
39401;SHT31;75540;50.000;7.360;2024-01-25T04:04:29;4.64;91.12
39401;SHT31;75540;50.000;7.360;2024-01-25T04:06:59;4.61;91.04
39401;SHT31;75540;50.000;7.360;2024-01-25T04:09:28;4.61;91.17
39401;SHT31;75540;50.000;7.360;2024-01-25T04:11:56;4.56;91.24
39401;SHT31;75540;50.000;7.360;2024-01-25T04:14:24;4.61;91.39
39401;SHT31;75540;50.000;7.360;2024-01-25T04:16:53;4.54;91.37
39401;SHT31;75540;50.000;7.360;2024-01-25T04:19:21;4.56;91.55
39401;SHT31;75540;50.000;7.360;2024-01-25T04:21:49;4.58;91.51
39401;SHT31;75540;50.000;7.360;2024-01-25T04:24:19;4.51;91.47
39401;SHT31;75540;50.000;7.360;2024-01-25T04:26:47;4.52;91.55
39401;SHT31;75540;50.000;7.360;2024-01-25T04:29:16;4.49;91.62
39401;SHT31;75540;50.000;7.360;2024-01-25T04:31:45;4.46;91.52
39401;SHT31;75540;50.000;7.360;2024-01-25T04:34:15;4.46;91.57
39401;SHT31;75540;50.000;7.360;2024-01-25T04:36:44;4.46;91.54
39401;SHT31;75540;50.000;7.360;2024-01-25T04:39:12;4.46;91.56
39401;SHT31;75540;50.000;7.360;2024-01-25T04:41:42;4.44;91.54
39401;SHT31;75540;50.000;7.360;2024-01-25T04:44:11;4.42;91.61
39401;SHT31;75540;50.000;7.360;2024-01-25T04:46:39;4.40;91.58
39401;SHT31;75540;50.000;7.360;2024-01-25T04:49:07;4.34;91.65
39401;SHT31;75540;50.000;7.360;2024-01-25T04:51:36;4.34;91.67
39401;SHT31;75540;50.000;7.360;2024-01-25T04:54:05;4.34;91.74
39401;SHT31;75540;50.000;7.360;2024-01-25T04:56:35;4.28;91.94
39401;SHT31;75540;50.000;7.360;2024-01-25T04:59:05;4.25;92.04
39401;SHT31;75540;50.000;7.360;2024-01-25T05:01:33;4.22;92.09
39401;SHT31;75540;50.000;7.360;2024-01-25T05:04:02;4.22;92.14
39401;SHT31;75540;50.000;7.360;2024-01-25T05:06:31;4.17;92.12
39401;SHT31;75540;50.000;7.360;2024-01-25T05:08:59;4.12;92.36
39401;SHT31;75540;50.000;7.360;2024-01-25T05:11:27;4.11;92.44
39401;SHT31;75540;50.000;7.360;2024-01-25T05:13:56;4.04;92.40
39401;SHT31;75540;50.000;7.360;2024-01-25T05:16:25;4.04;92.65
39401;SHT31;75540;50.000;7.360;2024-01-25T05:18:54;4.04;92.84
39401;SHT31;75540;50.000;7.360;2024-01-25T05:21:22;4.04;92.93
39401;SHT31;75540;50.000;7.360;2024-01-25T05:23:50;4.04;93.05
39401;SHT31;75540;50.000;7.360;2024-01-25T05:26:19;3.98;93.12
39401;SHT31;75540;50.000;7.360;2024-01-25T05:28:47;3.98;93.14
39401;SHT31;75540;50.000;7.360;2024-01-25T05:31:15;3.98;93.19
39401;SHT31;75540;50.000;7.360;2024-01-25T05:33:45;3.97;93.15
39401;SHT31;75540;50.000;7.360;2024-01-25T05:36:14;3.95;93.09
39401;SHT31;75540;50.000;7.360;2024-01-25T05:38:42;3.91;93.24
39401;SHT31;75540;50.000;7.360;2024-01-25T05:41:11;3.97;93.29
39401;SHT31;75540;50.000;7.360;2024-01-25T05:43:39;3.94;93.32
39401;SHT31;75540;50.000;7.360;2024-01-25T05:46:07;3.94;93.41
39401;SHT31;75540;50.000;7.360;2024-01-25T05:48:36;3.94;93.40
39401;SHT31;75540;50.000;7.360;2024-01-25T05:51:06;4.04;93.27
39401;SHT31;75540;50.000;7.360;2024-01-25T05:53:35;4.05;93.21
39401;SHT31;75540;50.000;7.360;2024-01-25T05:56:04;4.05;93.11
39401;SHT31;75540;50.000;7.360;2024-01-25T05:58:32;4.01;93.04
39401;SHT31;75540;50.000;7.360;2024-01-25T06:01:01;3.89;93.09
39401;SHT31;75540;50.000;7.360;2024-01-25T06:03:29;3.91;93.13
39401;SHT31;75540;50.000;7.360;2024-01-25T06:05:58;3.93;93.13
39401;SHT31;75540;50.000;7.360;2024-01-25T06:08:28;3.94;93.09
39401;SHT31;75540;50.000;7.360;2024-01-25T06:10:56;3.91;93.21
39401;SHT31;75540;50.000;7.360;2024-01-25T06:13:25;3.87;93.26
39401;SHT31;75540;50.000;7.360;2024-01-25T06:15:53;3.84;93.45
39401;SHT31;75540;50.000;7.360;2024-01-25T06:18:22;3.84;93.51
39401;SHT31;75540;50.000;7.360;2024-01-25T06:20:50;3.87;93.56
39401;SHT31;75540;50.000;7.360;2024-01-25T06:23:18;3.86;93.58
39401;SHT31;75540;50.000;7.360;2024-01-25T06:25:48;3.87;93.58
39401;SHT31;75540;50.000;7.360;2024-01-25T06:28:17;3.89;93.57
39401;SHT31;75540;50.000;7.360;2024-01-25T06:30:46;3.87;93.44
39401;SHT31;75540;50.000;7.360;2024-01-25T06:33:15;3.94;93.36
39401;SHT31;75540;50.000;7.360;2024-01-25T06:35:44;3.90;93.29
39401;SHT31;75540;50.000;7.360;2024-01-25T06:38:13;3.91;93.21
39401;SHT31;75540;50.000;7.360;2024-01-25T06:40:42;3.93;92.98
39401;SHT31;75540;50.000;7.360;2024-01-25T06:43:11;3.87;92.97
39401;SHT31;75540;50.000;7.360;2024-01-25T06:45:40;3.83;92.93
39401;SHT31;75540;50.000;7.360;2024-01-25T06:48:08;3.93;92.97
39401;SHT31;75540;50.000;7.360;2024-01-25T06:50:37;3.93;92.88
39401;SHT31;75540;50.000;7.360;2024-01-25T06:53:05;3.90;93.03
39401;SHT31;75540;50.000;7.360;2024-01-25T06:55:34;3.91;92.96
39401;SHT31;75540;50.000;7.360;2024-01-25T06:58:02;3.87;92.99
39401;SHT31;75540;50.000;7.360;2024-01-25T07:00:32;3.87;92.98
39401;SHT31;75540;50.000;7.360;2024-01-25T07:03:01;3.86;93.02
39401;SHT31;75540;50.000;7.360;2024-01-25T07:05:30;3.87;93.04
39401;SHT31;75540;50.000;7.360;2024-01-25T07:08:00;3.84;93.03
39401;SHT31;75540;50.000;7.360;2024-01-25T07:10:28;3.80;93.03
39401;SHT31;75540;50.000;7.360;2024-01-25T07:12:56;3.74;93.13
39401;SHT31;75540;50.000;7.360;2024-01-25T07:15:25;3.73;93.38
39401;SHT31;75540;50.000;7.360;2024-01-25T07:17:55;3.66;93.59
39401;SHT31;75540;50.000;7.360;2024-01-25T07:20:23;3.59;94.17
39401;SHT31;75540;50.000;7.360;2024-01-25T07:22:52;3.64;93.87
39401;SHT31;75540;50.000;7.360;2024-01-25T07:25:20;3.73;93.62
39401;SHT31;75540;50.000;7.360;2024-01-25T07:27:50;3.79;93.60
39401;SHT31;75540;50.000;7.360;2024-01-25T07:30:20;3.76;93.41
39401;SHT31;75540;50.000;7.360;2024-01-25T07:32:48;3.81;93.26
39401;SHT31;75540;50.000;7.360;2024-01-25T07:35:19;3.81;93.11
39401;SHT31;75540;50.000;7.360;2024-01-25T07:37:50;3.86;93.23
39401;SHT31;75540;50.000;7.360;2024-01-25T07:40:19;3.84;93.24
39401;SHT31;75540;50.000;7.360;2024-01-25T07:42:48;3.79;93.44
39401;SHT31;75540;50.000;7.360;2024-01-25T07:45:16;3.77;93.51
39401;SHT31;75540;50.000;7.360;2024-01-25T07:47:45;3.77;93.76
39401;SHT31;75540;50.000;7.360;2024-01-25T07:50:19;3.74;93.88
39401;SHT31;75540;50.000;7.360;2024-01-25T07:52:48;3.74;93.96
39401;SHT31;75540;50.000;7.360;2024-01-25T07:55:17;3.76;93.95
39401;SHT31;75540;50.000;7.360;2024-01-25T07:57:45;3.67;94.06
39401;SHT31;75540;50.000;7.360;2024-01-25T08:00:15;3.73;94.08
39401;SHT31;75540;50.000;7.360;2024-01-25T08:02:43;3.70;94.16
39401;SHT31;75540;50.000;7.360;2024-01-25T08:05:12;3.76;94.24
39401;SHT31;75540;50.000;7.360;2024-01-25T08:07:42;3.81;94.29
39401;SHT31;75540;50.000;7.360;2024-01-25T08:10:11;3.91;94.28
39401;SHT31;75540;50.000;7.360;2024-01-25T08:12:39;4.01;94.13
39401;SHT31;75540;50.000;7.360;2024-01-25T08:15:18;4.11;94.05
39401;SHT31;75540;50.000;7.360;2024-01-25T08:17:46;4.24;94.02
39401;SHT31;75540;50.000;7.360;2024-01-25T08:20:15;4.27;93.93
39401;SHT31;75540;50.000;7.360;2024-01-25T08:22:44;4.40;93.91
39401;SHT31;75540;50.000;7.360;2024-01-25T08:25:13;4.56;93.64
39401;SHT31;75540;50.000;7.360;2024-01-25T08:27:43;4.72;93.22
39401;SHT31;75540;50.000;7.360;2024-01-25T08:30:12;4.65;92.92
39401;SHT31;75540;50.000;7.360;2024-01-25T08:32:40;4.73;92.86
39401;SHT31;75540;50.000;7.360;2024-01-25T08:35:09;4.82;92.59
39401;SHT31;75540;50.000;7.360;2024-01-25T08:37:37;4.79;92.45
39401;SHT31;75540;50.000;7.360;2024-01-25T08:40:10;4.85;92.57
39401;SHT31;75540;50.000;7.360;2024-01-25T08:42:39;4.80;92.62
39401;SHT31;75540;50.000;7.360;2024-01-25T08:45:08;4.73;92.88
39401;SHT31;75540;50.000;7.360;2024-01-25T08:47:38;4.66;93.04
39401;SHT31;75540;50.000;7.360;2024-01-25T08:50:08;4.66;93.10
39401;SHT31;75540;50.000;7.360;2024-01-25T08:52:39;4.56;93.24
39401;SHT31;75540;50.000;7.360;2024-01-25T08:55:09;4.55;93.48
39401;SHT31;75540;50.000;7.360;2024-01-25T08:57:38;4.61;93.48
39401;SHT31;75540;50.000;7.360;2024-01-25T09:00:09;4.59;93.55
39401;SHT31;75540;50.000;7.360;2024-01-25T09:02:38;4.62;93.62
39401;SHT31;75540;50.000;7.360;2024-01-25T09:05:08;4.66;93.67
39401;SHT31;75540;50.000;7.360;2024-01-25T09:07:37;4.61;93.74
39401;SHT31;75540;50.000;7.360;2024-01-25T09:10:09;4.72;93.60
39401;SHT31;75540;50.000;7.360;2024-01-25T09:12:39;4.73;93.65
39401;SHT31;75540;50.000;7.360;2024-01-25T09:15:09;4.79;93.66
39401;SHT31;75540;50.000;7.360;2024-01-25T09:17:37;4.85;93.53
39401;SHT31;75540;50.000;7.360;2024-01-25T09:20:07;5.05;93.24
39401;SHT31;75540;50.000;7.360;2024-01-25T09:22:36;5.16;92.91
39401;SHT31;75540;50.000;7.360;2024-01-25T09:25:05;5.30;92.50
39401;SHT31;75540;50.000;7.360;2024-01-25T09:27:37;5.40;92.27
39401;SHT31;75540;50.000;7.360;2024-01-25T09:30:07;5.50;91.71
39401;SHT31;75540;50.000;7.360;2024-01-25T09:32:37;5.58;91.76
39401;SHT31;75540;50.000;7.360;2024-01-25T09:35:06;5.79;91.20
39401;SHT31;75540;50.000;7.360;2024-01-25T09:37:35;5.82;90.82
39401;SHT31;75540;50.000;7.360;2024-01-25T09:40:05;6.43;89.87
39401;SHT31;75540;50.000;7.360;2024-01-25T09:42:34;6.47;88.91
39401;SHT31;75540;50.000;7.360;2024-01-25T09:45:07;6.45;88.24
39401;SHT31;75540;50.000;7.360;2024-01-25T09:47:37;6.80;87.75
39401;SHT31;75540;50.000;7.360;2024-01-25T09:50:07;7.07;86.62
39401;SHT31;75540;50.000;7.360;2024-01-25T09:52:38;7.47;85.75
39401;SHT31;75540;50.000;7.360;2024-01-25T09:55:08;7.56;84.73
39401;SHT31;75540;50.000;7.360;2024-01-25T09:57:41;7.55;84.75
39401;SHT31;75540;50.000;7.360;2024-01-25T10:00:16;7.73;84.19
39401;SHT31;75540;50.000;7.360;2024-01-25T10:02:45;7.93;83.75
39401;SHT31;75540;50.000;7.360;2024-01-25T10:05:15;8.03;83.16
39401;SHT31;75540;50.000;7.360;2024-01-25T10:07:45;7.94;82.41
39401;SHT31;75540;50.000;7.360;2024-01-25T10:10:14;7.90;82.78
39401;SHT31;75540;50.000;7.360;2024-01-25T10:12:43;7.65;83.47
39401;SHT31;75540;50.000;7.360;2024-01-25T10:15:11;7.58;83.65
39401;SHT31;75540;50.000;7.360;2024-01-25T10:17:41;7.52;83.88
39401;SHT31;75540;50.000;7.360;2024-01-25T10:20:14;7.55;83.81
39401;SHT31;75540;50.000;7.360;2024-01-25T10:22:43;7.99;82.62
39401;SHT31;75540;50.000;7.360;2024-01-25T10:25:13;8.50;80.88
39401;SHT31;75540;50.000;7.360;2024-01-25T10:27:42;8.77;79.58
39401;SHT31;75540;50.000;7.360;2024-01-25T10:30:12;9.01;78.14
39401;SHT31;75540;50.000;7.360;2024-01-25T10:32:44;9.18;77.83
39401;SHT31;75540;50.000;7.360;2024-01-25T10:35:14;8.93;78.14
39401;SHT31;75540;50.000;7.360;2024-01-25T10:37:46;9.15;77.79
39401;SHT31;75540;50.000;7.360;2024-01-25T10:40:17;8.77;78.26
39401;SHT31;75540;50.000;7.360;2024-01-25T10:42:46;8.47;78.78
39401;SHT31;75540;50.000;7.360;2024-01-25T10:45:16;8.65;78.93
39401;SHT31;75540;50.000;7.360;2024-01-25T10:47:49;8.91;77.60
39401;SHT31;75540;50.000;7.360;2024-01-25T10:50:17;8.67;77.80
39401;SHT31;75540;50.000;7.360;2024-01-25T10:52:46;8.97;77.73
39401;SHT31;75540;50.000;7.360;2024-01-25T10:55:16;9.02;76.95
39401;SHT31;75540;50.000;7.360;2024-01-25T10:57:45;9.20;76.21
39401;SHT31;75540;50.000;7.360;2024-01-25T11:00:15;9.23;75.62
39401;SHT31;75540;50.000;7.360;2024-01-25T11:02:45;9.60;74.90
39401;SHT31;75540;50.000;7.360;2024-01-25T11:05:16;9.81;74.48
39401;SHT31;75540;50.000;7.360;2024-01-25T11:07:47;10.13;72.32
39401;SHT31;75540;50.000;7.360;2024-01-25T11:10:17;9.94;72.73
39401;SHT31;75540;50.000;7.360;2024-01-25T11:12:50;9.94;71.99
39401;SHT31;75540;50.000;7.360;2024-01-25T11:15:23;10.05;71.97
39401;SHT31;75540;50.000;7.360;2024-01-25T11:17:55;10.15;70.90
39401;SHT31;75540;50.000;7.360;2024-01-25T11:20:27;10.65;70.21
39401;SHT31;75540;50.000;7.360;2024-01-25T11:22:56;10.62;69.02
39401;SHT31;75540;50.000;7.360;2024-01-25T11:25:30;10.91;68.64
39401;SHT31;75540;50.000;7.360;2024-01-25T11:28:00;10.35;69.57
39401;SHT31;75540;50.000;7.360;2024-01-25T11:30:29;10.64;69.39
39401;SHT31;75540;50.000;7.360;2024-01-25T11:32:58;10.65;69.00
39401;SHT31;75540;50.000;7.360;2024-01-25T11:35:28;10.27;68.51
39401;SHT31;75540;50.000;7.360;2024-01-25T11:37:57;10.72;68.96
39401;SHT31;75540;50.000;7.360;2024-01-25T11:40:25;10.86;67.48
39401;SHT31;75540;50.000;7.360;2024-01-25T11:42:54;10.49;68.20
39401;SHT31;75540;50.000;7.360;2024-01-25T11:45:23;10.69;68.19
39401;SHT31;75540;50.000;7.360;2024-01-25T11:47:51;10.59;67.72
39401;SHT31;75540;50.000;7.360;2024-01-25T11:50:20;10.49;67.58
39401;SHT31;75540;50.000;7.360;2024-01-25T11:52:51;10.82;67.59
39401;SHT31;75540;50.000;7.360;2024-01-25T11:55:20;10.75;66.83
39401;SHT31;75540;50.000;7.360;2024-01-25T11:57:49;10.48;67.97
39401;SHT31;75540;50.000;7.360;2024-01-25T12:00:18;10.85;67.06
39401;SHT31;75540;50.000;7.360;2024-01-25T12:02:47;11.00;66.77
39401;SHT31;75540;50.000;7.360;2024-01-25T12:05:16;11.07;65.66
39401;SHT31;75540;50.000;7.360;2024-01-25T12:07:45;10.52;67.76
39401;SHT31;75540;50.000;7.360;2024-01-25T12:10:17;11.10;66.60
39401;SHT31;75540;50.000;7.360;2024-01-25T12:12:45;10.93;67.08
39401;SHT31;75540;50.000;7.360;2024-01-25T12:15:16;10.41;67.74
39401;SHT31;75540;50.000;7.360;2024-01-25T12:17:45;10.01;68.80
39401;SHT31;75540;50.000;7.360;2024-01-25T12:20:13;10.11;68.11
39401;SHT31;75540;50.000;7.360;2024-01-25T12:22:42;9.89;69.16
39401;SHT31;75540;50.000;7.360;2024-01-25T12:25:11;10.00;69.61
39401;SHT31;75540;50.000;7.360;2024-01-25T12:27:42;10.14;68.93
39401;SHT31;75540;50.000;7.360;2024-01-25T12:30:13;9.77;69.61
39401;SHT31;75540;50.000;7.360;2024-01-25T12:32:42;9.66;69.80
39401;SHT31;75540;50.000;7.360;2024-01-25T12:35:10;9.40;71.07
39401;SHT31;75540;50.000;7.360;2024-01-25T12:37:39;9.20;71.42
39401;SHT31;75540;50.000;7.360;2024-01-25T12:40:08;9.22;71.03
39401;SHT31;75540;50.000;7.360;2024-01-25T12:42:36;8.97;71.81
39401;SHT31;75540;50.000;7.360;2024-01-25T12:45:07;8.95;72.31
39401;SHT31;75540;50.000;7.360;2024-01-25T12:47:36;8.99;72.74
39401;SHT31;75540;50.000;7.360;2024-01-25T12:50:05;8.89;72.48
39401;SHT31;75540;50.000;7.360;2024-01-25T12:52:34;8.88;72.65
39401;SHT31;75540;50.000;7.360;2024-01-25T12:55:03;8.77;73.39
39401;SHT31;75540;50.000;7.360;2024-01-25T12:57:31;8.91;73.14
39401;SHT31;75540;50.000;7.360;2024-01-25T12:59:59;8.81;73.60
39401;SHT31;75540;50.000;7.360;2024-01-25T13:02:29;8.81;73.71
39401;SHT31;75540;50.000;7.360;2024-01-25T13:04:58;8.84;74.05
39401;SHT31;75540;50.000;7.360;2024-01-25T13:07:27;8.88;73.98
39401;SHT31;75540;50.000;7.360;2024-01-25T13:09:56;8.87;73.84
39401;SHT31;75540;50.000;7.360;2024-01-25T13:12:24;8.89;73.43
39401;SHT31;75540;50.000;7.360;2024-01-25T13:14:53;8.88;73.92
39401;SHT31;75540;50.000;7.360;2024-01-25T13:17:21;8.82;74.09
39401;SHT31;75540;50.000;7.360;2024-01-25T13:19:52;8.81;74.54
39401;SHT31;75540;50.000;7.360;2024-01-25T13:22:21;8.84;75.02
39401;SHT31;75540;50.000;7.360;2024-01-25T13:24:51;8.99;74.74
39401;SHT31;75540;50.000;7.360;2024-01-25T13:27:20;9.11;74.38
39401;SHT31;75540;50.000;7.360;2024-01-25T13:29:48;8.91;74.35
39401;SHT31;75540;50.000;7.360;2024-01-25T13:32:16;8.88;74.38
39401;SHT31;75540;50.000;7.360;2024-01-25T13:34:45;8.75;75.36
39401;SHT31;75540;50.000;7.360;2024-01-25T13:37:15;8.57;75.97
39401;SHT31;75540;50.000;7.360;2024-01-25T13:39:43;8.64;75.82
39401;SHT31;75540;50.000;7.360;2024-01-25T13:42:12;8.44;76.55
39401;SHT31;75540;50.000;7.360;2024-01-25T13:44:40;8.55;76.70
39401;SHT31;75540;50.000;7.360;2024-01-25T13:47:09;8.74;76.44
39401;SHT31;75540;50.000;7.360;2024-01-25T13:49:37;8.65;76.10
39401;SHT31;75540;50.000;7.360;2024-01-25T13:52:05;8.57;76.66
39401;SHT31;75540;50.000;7.360;2024-01-25T13:54:36;8.29;76.82
39401;SHT31;75540;50.000;7.360;2024-01-25T13:57:04;8.27;77.70
39401;SHT31;75540;50.000;7.360;2024-01-25T13:59:33;8.34;77.70
39401;SHT31;75540;50.000;7.360;2024-01-25T14:02:02;8.29;77.89
39401;SHT31;75540;50.000;7.360;2024-01-25T14:04:31;8.24;78.42
39401;SHT31;75540;50.000;7.360;2024-01-25T14:07:00;8.24;78.69
39401;SHT31;75540;50.000;7.360;2024-01-25T14:09:30;8.10;78.86
39401;SHT31;75540;50.000;7.360;2024-01-25T14:12:01;8.06;79.23
39401;SHT31;75540;50.000;7.360;2024-01-25T14:14:32;8.12;79.46
39401;SHT31;75540;50.000;7.360;2024-01-25T14:17:07;7.96;79.80
39401;SHT31;75540;50.000;7.360;2024-01-25T14:19:36;7.94;79.85
39401;SHT31;75540;50.000;7.360;2024-01-25T14:22:04;8.10;79.96
39401;SHT31;75540;50.000;7.360;2024-01-25T14:24:53;8.13;79.82
39401;SHT31;75540;50.000;7.360;2024-01-25T14:27:24;8.16;79.66
39401;SHT31;75540;50.000;7.360;2024-01-25T14:29:54;8.12;79.97
39401;SHT31;75540;50.000;7.360;2024-01-25T14:32:23;8.12;79.93
39401;SHT31;75540;50.000;7.360;2024-01-25T14:34:52;8.12;79.98
39401;SHT31;75540;50.000;7.360;2024-01-25T14:37:21;8.04;80.28
39401;SHT31;75540;50.000;7.360;2024-01-25T14:39:50;8.09;80.37
39401;SHT31;75540;50.000;7.360;2024-01-25T14:42:40;8.06;80.31
39401;SHT31;75540;50.000;7.360;2024-01-25T14:45:09;8.09;80.44
39401;SHT31;75540;50.000;7.360;2024-01-25T14:47:37;8.10;80.44
39401;SHT31;75540;50.000;7.360;2024-01-25T14:50:06;8.09;80.68
39401;SHT31;75540;50.000;7.360;2024-01-25T14:52:35;8.14;80.72
39401;SHT31;75540;50.000;7.360;2024-01-25T14:55:03;8.16;80.73
39401;SHT31;75540;50.000;7.360;2024-01-25T14:57:32;8.19;80.70
39401;SHT31;75540;50.000;7.360;2024-01-25T15:00:04;8.09;80.86
39401;SHT31;75540;50.000;7.360;2024-01-25T15:02:33;8.04;81.08
39401;SHT31;75540;50.000;7.360;2024-01-25T15:05:01;8.02;81.49
39401;SHT31;75540;50.000;7.360;2024-01-25T15:07:31;7.94;81.60
39401;SHT31;75540;50.000;7.360;2024-01-25T15:10:00;7.96;81.87
39401;SHT31;75540;50.000;7.360;2024-01-25T15:12:28;7.96;81.93
39401;SHT31;75540;50.000;7.360;2024-01-25T15:14:57;7.99;81.99
39401;SHT31;75540;50.000;7.360;2024-01-25T15:17:27;7.97;81.96
39401;SHT31;75540;50.000;7.360;2024-01-25T15:19:55;7.94;82.14
39401;SHT31;75540;50.000;7.360;2024-01-25T15:22:24;7.90;82.23
39401;SHT31;75540;50.000;7.360;2024-01-25T15:24:54;7.90;82.40
39401;SHT31;75540;50.000;7.360;2024-01-25T15:27:22;7.86;82.74
39401;SHT31;75540;50.000;7.360;2024-01-25T15:29:51;7.87;82.79
39401;SHT31;75540;50.000;7.360;2024-01-25T15:32:19;7.87;82.84
39401;SHT31;75540;50.000;7.360;2024-01-25T15:34:49;7.81;82.96
39401;SHT31;75540;50.000;7.360;2024-01-25T15:37:17;7.83;82.89
39401;SHT31;75540;50.000;7.360;2024-01-25T15:39:45;7.85;82.88
39401;SHT31;75540;50.000;7.360;2024-01-25T15:42:14;7.87;82.78
39401;SHT31;75540;50.000;7.360;2024-01-25T15:44:42;7.86;82.76
39401;SHT31;75540;50.000;7.360;2024-01-25T15:47:10;7.83;82.71
39401;SHT31;75540;50.000;7.360;2024-01-25T15:49:39;7.82;82.81
39401;SHT31;75540;50.000;7.360;2024-01-25T15:52:09;7.83;82.87
39401;SHT31;75540;50.000;7.360;2024-01-25T15:54:38;7.76;83.14
39401;SHT31;75540;50.000;7.360;2024-01-25T15:57:06;7.72;83.35